S/y Squall — ZCIF2 — position and weather

sailwx.info

Track history (hours):
 
Tides and Currents Weather Stations Pressure Air Temp Water Temp Dewpoint Dewpoint Depression Visibility Wind Speed Wind Dir Waves Ship Positions

S/y Squall

Last reported at 2016-Jul-23 12:33 UTC. Time now 2016-Jul-23 13:11 UTC.
Position N 38°35' E 013°15'.

Length 52 m; draft 5.2 m.

Type: Sailing vessel. MMSI: 319811000.

Date/timePositionNaut miles runAvg speedWind from/ knotsBaromVisibWave heightAir tempDewpointWater temp
2016-Jul-23 12:33N 38°35' E 013°15'1211.6
2016-Jul-23 11:33N 38°24' E 013°20'1211.8
2016-Jul-23 10:33N 38°13' E 013°25'5 4.4
2016-Jul-23 09:32N 38°09' E 013°22'0 0.0
2016-Jul-23 08:32N 38°09' E 013°22'0 0.0
2016-Jul-23 07:32N 38°09' E 013°22'0 0.0
2016-Jul-23 06:32N 38°09' E 013°22'0 0.0
2016-Jul-23 04:32N 38°09' E 013°22'0 0.0
2016-Jul-23 03:32N 38°09' E 013°22'0 0.0
2016-Jul-23 02:32N 38°09' E 013°22'0 0.0
2016-Jul-23 01:29N 38°09' E 013°22'0 0.0
2016-Jul-23 00:29N 38°09' E 013°22'0 0.0
2016-Jul-22 23:32N 38°09' E 013°22'0 0.0
2016-Jul-22 22:32N 38°09' E 013°22'0 0.0
2016-Jul-22 21:29N 38°09' E 013°22'0 0.0
2016-Jul-22 20:32N 38°09' E 013°22'0 0.0
2016-Jul-22 19:32N 38°09' E 013°22'0 0.0
2016-Jul-22 18:32N 38°09' E 013°22'0 0.0
2016-Jul-22 17:32N 38°09' E 013°22'0 0.0
2016-Jul-22 16:32N 38°09' E 013°22'0 0.0
2016-Jul-22 15:32N 38°09' E 013°22'0 0.0
2016-Jul-22 14:32N 38°09' E 013°22'0 0.0
2016-Jul-22 13:32N 38°09' E 013°22'0 0.0
2016-Jul-22 12:32N 38°09' E 013°22'0 0.0
2016-Jul-22 11:26N 38°09' E 013°22'0 0.0
2016-Jul-22 10:20N 38°09' E 013°22'0 0.1
2016-Jul-22 09:33N 38°09' E 013°22'7 7.2
2016-Jul-22 08:34N 38°15' E 013°18'2511.6
2016-Jul-22 06:23N 38°19' E 012°46'3811.8
2016-Jul-22 03:11N 38°21' E 011°58'1012.3
2016-Jul-22 02:24N 38°21' E 011°46'1112.4
2016-Jul-22 01:33N 38°22' E 011°33'1312.4
2016-Jul-22 00:32N 38°23' E 011°17'3712.1
2016-Jul-21 21:27N 38°25' E 010°29'1111.9
2016-Jul-21 20:30N 38°25' E 010°14'4711.8
2016-Jul-21 16:33N 38°28' E 009°15'13711.3
2016-Jul-21 04:28N 38°35' E 006°20'4511.2
2016-Jul-21 00:26N 38°38' E 005°23'4812.0
2016-Jul-20 20:23N 38°40' E 004°21'1011.9
2016-Jul-20 19:32N 38°41' E 004°08'1212.0
2016-Jul-20 18:33N 38°42' E 003°53'1211.6
2016-Jul-20 17:33N 38°43' E 003°38'1111.2
2016-Jul-20 16:33N 38°44' E 003°24'1211.4
2016-Jul-20 15:33N 38°45' E 003°09'1111.4
2016-Jul-20 14:33N 38°46' E 002°55'1111.1
2016-Jul-20 13:33N 38°46' E 002°40'1111.3
2016-Jul-20 12:33N 38°46' E 002°26'1110.9
2016-Jul-20 11:31N 38°47' E 002°11'1111.0
2016-Jul-20 10:33N 38°48' E 001°58'1111.3
2016-Jul-20 09:33N 38°49' E 001°43'1110.9
2016-Jul-20 08:33N 38°49' E 001°29'10 4.0
2016-Jul-20 06:07N 38°52' E 001°18'0 0.0
2016-Jul-20 04:25N 38°52' E 001°18'0 0.0
2016-Jul-20 03:12N 38°52' E 001°18'7 0.2
2016-Jul-18 19:29N 38°51' E 001°26'0 0.1
2016-Jul-18 16:33N 38°51' E 001°26'6 2.9
2016-Jul-18 14:29N 38°45' E 001°26'0 0.0
2016-Jul-18 13:32N 38°45' E 001°26'0 0.0
2016-Jul-18 00:14N 38°45' E 001°26'0 0.0
2016-Jul-17 19:20N 38°45' E 001°26'3 0.7
2016-Jul-17 15:13N 38°48' E 001°26'710.1
2016-Jul-17 14:33N 38°43' E 001°32'5 0.2
2016-Jul-16 09:16N 38°45' E 001°26'0 0.0
2016-Jul-16 08:31N 38°45' E 001°26'0 0.0
2016-Jul-16 07:31N 38°45' E 001°26'0 0.0
2016-Jul-16 06:31N 38°45' E 001°26'0 0.0
2016-Jul-16 04:28N 38°45' E 001°26'0 0.0
2016-Jul-16 03:31N 38°45' E 001°26'0 0.0
2016-Jul-16 02:31N 38°45' E 001°26'0 0.0
2016-Jul-16 01:31N 38°45' E 001°26'0 0.0
2016-Jul-16 00:31N 38°45' E 001°26'0 0.0
2016-Jul-15 23:31N 38°45' E 001°26'0 0.0
2016-Jul-15 22:31N 38°45' E 001°26'0 0.0
2016-Jul-15 21:31N 38°45' E 001°26'0 0.0
2016-Jul-15 20:31N 38°45' E 001°26'0 0.0
2016-Jul-15 16:24N 38°45' E 001°26'0 0.0
2016-Jul-15 12:24N 38°45' E 001°26'0 0.0
2016-Jul-15 10:31N 38°45' E 001°26'0 0.0
2016-Jul-14 16:17N 38°45' E 001°26'0 0.0
2016-Jul-14 14:17N 38°45' E 001°26'  
Track history (hours):
 
Tides and Currents Weather Stations Pressure Air Temp Water Temp Dewpoint Dewpoint Depression Visibility Wind Speed Wind Dir Waves Ship Positions

S/y Squall

Last reported at 2016-Jul-23 12:33 UTC. Time now 2016-Jul-23 13:11 UTC.
Position N 38°35' E 013°15'.

Length 52 m; draft 5.2 m.

Type: Sailing vessel. MMSI: 319811000.

Date/timePositionNaut miles runAvg speedWind from/ knotsBaromVisibWave heightAir tempDewpointWater temp
2016-Jul-23 12:33N 38°35' E 013°15'1211.6
2016-Jul-23 11:33N 38°24' E 013°20'1211.8
2016-Jul-23 10:33N 38°13' E 013°25'5 4.4
2016-Jul-23 09:32N 38°09' E 013°22'0 0.0
2016-Jul-23 08:32N 38°09' E 013°22'0 0.0
2016-Jul-23 07:32N 38°09' E 013°22'0 0.0
2016-Jul-23 06:32N 38°09' E 013°22'0 0.0
2016-Jul-23 04:32N 38°09' E 013°22'0 0.0
2016-Jul-23 03:32N 38°09' E 013°22'0 0.0
2016-Jul-23 02:32N 38°09' E 013°22'0 0.0
2016-Jul-23 01:29N 38°09' E 013°22'0 0.0
2016-Jul-23 00:29N 38°09' E 013°22'0 0.0
2016-Jul-22 23:32N 38°09' E 013°22'0 0.0
2016-Jul-22 22:32N 38°09' E 013°22'0 0.0
2016-Jul-22 21:29N 38°09' E 013°22'0 0.0
2016-Jul-22 20:32N 38°09' E 013°22'0 0.0
2016-Jul-22 19:32N 38°09' E 013°22'0 0.0
2016-Jul-22 18:32N 38°09' E 013°22'0 0.0
2016-Jul-22 17:32N 38°09' E 013°22'0 0.0
2016-Jul-22 16:32N 38°09' E 013°22'0 0.0
2016-Jul-22 15:32N 38°09' E 013°22'0 0.0
2016-Jul-22 14:32N 38°09' E 013°22'0 0.0
2016-Jul-22 13:32N 38°09' E 013°22'0 0.0
2016-Jul-22 12:32N 38°09' E 013°22'0 0.0
2016-Jul-22 11:26N 38°09' E 013°22'0 0.0
2016-Jul-22 10:20N 38°09' E 013°22'0 0.1
2016-Jul-22 09:33N 38°09' E 013°22'7 7.2
2016-Jul-22 08:34N 38°15' E 013°18'2511.6
2016-Jul-22 06:23N 38°19' E 012°46'3811.8
2016-Jul-22 03:11N 38°21' E 011°58'1012.3
2016-Jul-22 02:24N 38°21' E 011°46'1112.4
2016-Jul-22 01:33N 38°22' E 011°33'1312.4
2016-Jul-22 00:32N 38°23' E 011°17'3712.1
2016-Jul-21 21:27N 38°25' E 010°29'1111.9
2016-Jul-21 20:30N 38°25' E 010°14'4711.8
2016-Jul-21 16:33N 38°28' E 009°15'13711.3
2016-Jul-21 04:28N 38°35' E 006°20'4511.2
2016-Jul-21 00:26N 38°38' E 005°23'4812.0
2016-Jul-20 20:23N 38°40' E 004°21'1011.9
2016-Jul-20 19:32N 38°41' E 004°08'1212.0
2016-Jul-20 18:33N 38°42' E 003°53'1211.6
2016-Jul-20 17:33N 38°43' E 003°38'1111.2
2016-Jul-20 16:33N 38°44' E 003°24'1211.4
2016-Jul-20 15:33N 38°45' E 003°09'1111.4
2016-Jul-20 14:33N 38°46' E 002°55'1111.1
2016-Jul-20 13:33N 38°46' E 002°40'1111.3
2016-Jul-20 12:33N 38°46' E 002°26'1110.9
2016-Jul-20 11:31N 38°47' E 002°11'1111.0
2016-Jul-20 10:33N 38°48' E 001°58'1111.3
2016-Jul-20 09:33N 38°49' E 001°43'1110.9
2016-Jul-20 08:33N 38°49' E 001°29'10 4.0
2016-Jul-20 06:07N 38°52' E 001°18'0 0.0
2016-Jul-20 04:25N 38°52' E 001°18'0 0.0
2016-Jul-20 03:12N 38°52' E 001°18'7 0.2
2016-Jul-18 19:29N 38°51' E 001°26'0 0.1
2016-Jul-18 16:33N 38°51' E 001°26'6 2.9
2016-Jul-18 14:29N 38°45' E 001°26'0 0.0
2016-Jul-18 13:32N 38°45' E 001°26'0 0.0
2016-Jul-18 00:14N 38°45' E 001°26'0 0.0
2016-Jul-17 19:20N 38°45' E 001°26'3 0.7
2016-Jul-17 15:13N 38°48' E 001°26'710.1
2016-Jul-17 14:33N 38°43' E 001°32'5 0.2
2016-Jul-16 09:16N 38°45' E 001°26'0 0.0
2016-Jul-16 08:31N 38°45' E 001°26'0 0.0
2016-Jul-16 07:31N 38°45' E 001°26'0 0.0
2016-Jul-16 06:31N 38°45' E 001°26'0 0.0
2016-Jul-16 04:28N 38°45' E 001°26'0 0.0
2016-Jul-16 03:31N 38°45' E 001°26'0 0.0
2016-Jul-16 02:31N 38°45' E 001°26'0 0.0
2016-Jul-16 01:31N 38°45' E 001°26'0 0.0
2016-Jul-16 00:31N 38°45' E 001°26'0 0.0
2016-Jul-15 23:31N 38°45' E 001°26'0 0.0
2016-Jul-15 22:31N 38°45' E 001°26'0 0.0
2016-Jul-15 21:31N 38°45' E 001°26'0 0.0
2016-Jul-15 20:31N 38°45' E 001°26'0 0.0
2016-Jul-15 16:24N 38°45' E 001°26'0 0.0
2016-Jul-15 12:24N 38°45' E 001°26'0 0.0
2016-Jul-15 10:31N 38°45' E 001°26'0 0.0
2016-Jul-14 16:17N 38°45' E 001°26'0 0.0
2016-Jul-14 14:17N 38°45' E 001°26'  

Dump ship's entire track history